Latest Weather Observations for Nullarbor

IDS60801

Issued at 1:21 pm CST Tuesday 17 July 2018 (issued every 10 minutes, with the page automatically refreshed every 10 minutes)

About weather observations | Map of weather stations | Latest weather observations for SA | Other Formats
Station Details ID: 018106 Name: NULLARBOR Lat: -31.45 Lon: 130.90 Height: 64.0 m
Data from the previous 72 hours. | See also: Recent months at Nullarbor
Date/Time
CST
Temp
°C
App
Temp
°C
Dew
Point
°C
Rel
Hum
%
Delta-T
°C
Wind Press
QNH
hPa
Press
MSL
hPa
Rain since
9am
mm
Dir  Spd
km/h
Gust
km/h
Spd
kts
Gust
kts
17/01:00pm 15.1 11.5 11.7 80 1.8 WSW 22 37 12 20 1016.8 1016.9 0.2
17/12:30pm 15.3 11.5 11.3 77 2.1 W 22 32 12 17 1017.0 1017.1 0.2
17/12:24pm 14.6 11.3 11.7 83 1.6 W 20 30 11 16 1017.1 1017.2 0.2
17/12:00pm 13.4 8.9 12.5 94 0.5 W 28 35 15 19 1017.3 1017.4 0.2
17/11:34am 14.0 9.5 11.5 85 1.3 WSW 26 33 14 18 1017.1 1017.2 0.0
17/11:30am 14.9 10.8 11.3 79 1.9 W 24 32 13 17 1017.0 1017.1 0.0
17/11:00am 15.0 11.6 11.4 79 1.9 W 20 30 11 16 1016.8 1016.9 0.0
17/10:30am 13.5 10.5 10.5 82 1.6 WNW 17 22 9 12 1016.7 1016.8 0.0
17/10:00am 12.9 10.4 12.4 97 0.3 WNW 17 24 9 13 1016.1 1016.2 0.0
17/09:30am 12.1 10.2 11.9 99 0.1 W 13 24 7 13 1015.9 1015.9 0.0
17/09:00am 11.1 7.8 10.9 99 0.1 NW 19 24 10 13 1015.2 1015.2 2.0
17/08:30am 9.8 7.3 9.7 99 0.1 NW 13 17 7 9 1014.8 1014.8 2.0
17/08:07am 9.2 6.5 9.1 99 0.0 NW 13 17 7 9 1014.5 1014.5 2.0
17/08:00am 9.0 5.9 8.9 99 0.0 NW 15 19 8 10 1014.4 1014.4 2.0
17/07:40am 9.3 6.5 8.4 94 0.4 NW 13 19 7 10 1014.1 1014.1 1.0
17/07:30am 9.2 5.9 8.1 93 0.5 NW 15 19 8 10 1013.5 1013.5 0.4
17/07:00am 9.7 6.0 8.0 89 0.8 NW 17 20 9 11 1012.9 1012.9 0.4
17/06:52am 10.0 6.3 7.9 87 1.0 NW 17 20 9 11 1012.8 1012.8 0.4
17/06:33am 10.7 6.7 6.5 75 2.0 WNW 17 20 9 11 1012.6 1012.6 0.2
17/06:30am 10.9 6.8 6.3 73 2.2 WNW 17 20 9 11 1012.5 1012.5 0.2
17/06:00am 10.6 5.9 5.2 69 2.5 WNW 19 24 10 13 1011.8 1011.8 0.2
17/05:30am 11.3 5.6 4.7 64 3.0 WNW 24 30 13 16 1011.5 1011.5 0.2
17/05:00am 11.8 5.3 4.5 61 3.3 WNW 28 35 15 19 1010.8 1010.8 0.2
17/04:30am 12.2 5.6 4.4 59 3.6 WNW 28 37 15 20 1010.6 1010.6 0.2
17/04:00am 12.8 5.5 4.3 56 3.9 WNW 32 43 17 23 1010.1 1010.1 0.2
17/03:30am 13.2 6.3 4.4 55 4.0 NW 30 41 16 22 1009.6 1009.6 0.2
17/03:00am 13.1 6.5 4.0 54 4.1 NW 28 39 15 21 1009.5 1009.5 0.2
17/02:30am 12.3 5.9 3.3 54 4.0 NW 26 33 14 18 1009.5 1009.5 0.2
17/02:00am 12.5 6.0 2.7 51 4.3 NW 26 35 14 19 1009.4 1009.4 0.2
17/01:30am 12.3 5.3 2.2 50 4.4 NW 28 37 15 20 1009.4 1009.4 0.2
17/01:00am 12.8 5.8 2.1 48 4.6 NW 28 37 15 20 1009.2 1009.2 0.2
17/12:30am 12.8 5.8 1.8 47 4.8 NW 28 37 15 20 1009.7 1009.7 0.2
17/12:00am 13.1 6.1 1.8 46 4.9 NW 28 35 15 19 1009.2 1009.2 0.2
 
Date/Time
CST
Temp
°C
App
Temp
°C
Dew
Point
°C
Rel
Hum
%
Delta-T
°C
Wind Press
QNH
hPa
Press
MSL
hPa
Rain since
9am
mm
Dir  Spd
km/h
Gust
km/h
Spd
kts
Gust
kts
16/11:30pm 13.0 6.0 1.7 46 4.9 NNW 28 35 15 19 1009.0 1009.0 0.2
16/11:00pm 12.4 5.7 1.4 47 4.7 NNW 26 35 14 19 1009.1 1009.1 0.2
16/10:30pm 11.7 5.4 1.6 50 4.3 NNW 24 30 13 16 1009.3 1009.3 0.2
16/10:00pm 12.7 6.0 1.7 47 4.7 NNW 26 32 14 17 1009.4 1009.4 0.2
16/09:30pm 13.7 7.0 1.7 44 5.2 NNW 26 35 14 19 1009.4 1009.4 0.2
16/09:00pm 14.0 7.8 2.0 44 5.3 NNW 24 32 13 17 1009.4 1009.4 0.2
16/08:30pm 13.2 7.9 2.1 47 4.8 NNW 19 26 10 14 1009.7 1009.7 0.2
16/08:00pm 12.6 7.2 2.2 49 4.5 N 20 24 11 13 1009.9 1009.9 0.2
16/07:30pm 13.2 7.9 2.1 47 4.8 N 19 20 10 11 1009.9 1009.9 0.2
16/07:00pm 14.1 8.8 2.0 44 5.3 NNW 19 20 10 11 1009.7 1009.7 0.2
16/06:30pm 15.5 10.2 2.0 40 6.0 NNW 19 22 10 12 1009.7 1009.7 0.2
16/06:00pm 17.7 11.4 1.7 34 7.2 NNW 24 32 13 17 1009.6 1009.6 0.2
16/05:30pm 18.9 12.3 1.9 32 7.8 NNW 26 41 14 22 1009.6 1009.6 0.2
16/05:22pm 19.2 11.8 2.1 32 7.8 NNW 30 48 16 26 1009.6 1009.6 0.2
16/05:00pm 19.5 11.1 1.5 30 8.2 NNW 35 44 19 24 1009.5 1009.5 0.2
16/04:30pm 19.9 11.6 2.3 31 8.2 NNW 35 46 19 25 1009.8 1009.8 0.2
16/04:01pm 20.1 12.2 2.0 30 8.4 NW 33 52 18 28 1009.9 1009.9 0.2
16/04:00pm 20.1 12.4 2.5 31 8.2 NW 32 44 17 24 1009.9 1009.9 0.2
16/03:30pm 20.2 13.4 3.0 32 8.1 NNW 28 41 15 22 1010.3 1010.3 0.2
16/03:00pm 19.8 12.5 2.6 32 8.0 NW 30 43 16 23 1010.6 1010.6 0.2
16/02:30pm 19.7 12.1 3.0 33 7.8 NW 32 48 17 26 1011.1 1011.1 0.2
16/02:00pm 19.5 11.8 3.6 35 7.5 NW 33 54 18 29 1011.6 1011.6 0.2
16/01:52pm 19.5 12.4 3.6 35 7.5 NW 30 54 16 29 1011.6 1011.6 0.2
16/01:30pm 18.8 10.8 3.8 37 7.1 WNW 35 48 19 26 1012.2 1012.2 0.2
16/01:00pm 18.6 11.1 4.4 39 6.8 NW 33 44 18 24 1012.9 1012.9 0.2
16/12:30pm 18.1 11.1 4.3 40 6.6 NW 30 41 16 22 1013.4 1013.4 0.0
16/12:00pm 17.6 10.8 4.9 43 6.1 NW 30 43 16 23 1013.9 1013.9 0.0
16/11:30am 16.9 10.7 6.1 49 5.3 NW 28 37 15 20 1014.3 1014.3 0.0
16/11:00am 15.5 8.7 7.0 57 4.2 NW 32 41 17 22 1014.6 1014.6 0.0
16/10:30am 14.4 9.1 8.6 68 2.9 NW 26 33 14 18 1014.7 1014.7 0.0
16/10:00am 12.8 8.7 8.7 76 2.1 NW 20 32 11 17 1014.6 1014.6 0.0
16/09:30am 11.1 6.8 9.4 89 0.9 NW 22 30 12 16 1014.4 1014.4 0.0
16/09:00am 9.1 5.7 9.0 99 0.0 NW 17 22 9 12 1014.5 1014.5 0.6
16/08:30am 7.1 3.2 7.1 100 0.0 NNW 17 22 9 12 1014.7 1014.7 0.6
16/08:00am 5.8 2.4 5.8 100 0.0 NNW 13 19 7 10 1014.8 1014.8 0.6
16/07:30am 5.9 2.5 5.9 100 0.0 NW 13 19 7 10 1014.5 1014.5 0.6
16/07:00am 5.8 2.0 5.8 100 0.0 NNW 15 19 8 10 1014.1 1014.1 0.6
16/06:30am 6.0 2.6 6.0 100 0.0 NW 13 17 7 9 1013.8 1013.8 0.6
16/06:00am 6.0 2.2 6.0 100 0.0 NW 15 19 8 10 1013.9 1013.9 0.6
16/05:30am 6.0 2.2 6.0 100 0.0 NW 15 19 8 10 1013.8 1013.8 0.6
16/05:00am 6.3 2.6 6.3 100 0.0 NW 15 19 8 10 1013.8 1013.8 0.6
16/04:30am 6.6 3.0 6.6 100 0.0 NW 15 17 8 9 1014.0 1014.0 0.6
16/04:00am 7.0 3.5 7.0 100 0.0 WNW 15 17 8 9 1014.1 1014.1 0.6
16/03:30am 7.1 3.6 7.1 100 0.0 WNW 15 20 8 11 1014.2 1014.2 0.6
16/03:00am 7.6 3.8 7.6 100 0.0 WNW 17 20 9 11 1014.1 1014.1 0.6
16/02:30am 7.9 3.8 7.9 100 0.0 WNW 19 24 10 13 1013.9 1013.9 0.6
16/02:00am 7.3 4.2 7.3 100 0.0 NW 13 17 7 9 1014.0 1014.0 0.6
16/01:30am 8.0 5.1 8.0 100 0.0 WNW 13 17 7 9 1014.0 1014.0 0.6
16/01:00am 8.9 5.8 8.9 100 0.0 WNW 15 19 8 10 1014.1 1014.1 0.6
16/12:30am 9.3 6.3 9.3 100 0.0 WNW 15 19 8 10 1014.0 1014.0 0.6
16/12:00am 9.8 6.6 9.8 100 0.0 WNW 17 20 9 11 1014.0 1014.0 0.6
 
Date/Time
CST
Temp
°C
App
Temp
°C
Dew
Point
°C
Rel
Hum
%
Delta-T
°C
Wind Press
QNH
hPa
Press
MSL
hPa
Rain since
9am
mm
Dir  Spd
km/h
Gust
km/h
Spd
kts
Gust
kts
15/11:30pm 9.5 6.6 9.5 100 0.0 WNW 15 19 8 10 1013.8 1013.8 0.6
15/11:00pm 9.5 7.7 9.4 99 0.0 WNW 9 13 5 7 1013.6 1013.6 0.6
15/10:30pm 9.9 7.8 9.8 99 0.1 WSW 11 15 6 8 1013.7 1013.7 0.6
15/10:00pm 10.3 7.5 10.1 99 0.1 WNW 15 17 8 9 1013.3 1013.3 0.6
15/09:30pm 10.8 8.5 10.6 99 0.1 WNW 13 17 7 9 1013.0 1013.0 0.6
15/09:00pm 11.8 9.0 11.3 97 0.3 WNW 17 20 9 11 1012.7 1012.7 0.6
15/08:30pm 12.4 9.7 11.6 95 0.4 WNW 17 22 9 12 1012.3 1012.3 0.6
15/08:00pm 13.1 10.4 11.7 91 0.7 WNW 17 20 9 11 1011.9 1011.9 0.6
15/07:30pm 13.9 11.2 11.8 87 1.1 W 17 20 9 11 1011.5 1011.5 0.6
15/07:00pm 14.4 11.3 11.6 83 1.5 W 19 24 10 13 1011.0 1011.0 0.6
15/06:30pm 14.6 10.8 11.2 80 1.8 WSW 22 30 12 16 1010.5 1010.5 0.6
15/06:00pm 14.9 11.4 10.9 77 2.1 W 20 30 11 16 1010.0 1010.0 0.6
15/05:30pm 15.6 10.8 10.2 70 2.8 WSW 26 39 14 21 1009.4 1009.4 0.6
15/05:11pm 15.5 8.7 9.4 67 3.2 WSW 35 54 19 29 1009.2 1009.2 0.6
15/05:00pm 16.0 8.4 9.0 63 3.6 WSW 39 54 21 29 1009.0 1009.0 0.6
15/04:30pm 16.1 10.3 10.8 71 2.8 WSW 32 44 17 24 1008.6 1008.6 0.6
15/04:13pm 15.9 12.3 13.2 84 1.5 WSW 24 33 13 18 1008.4 1008.4 0.6
15/04:05pm 14.8 9.5 12.5 86 1.3 WSW 32 50 17 27 1008.2 1008.2 0.6
15/04:00pm 14.8 8.4 11.9 83 1.6 WSW 37 52 20 28 1008.3 1008.3 0.6
15/03:57pm 14.9 7.7 11.9 82 1.6 WSW 41 59 22 32 1008.2 1008.2 0.4
15/03:56pm 15.0 7.4 11.8 81 1.7 WSW 43 59 23 32 1008.1 1008.1 0.4
15/03:47pm 17.6 12.7 10.0 61 4.0 WSW 26 54 14 29 1007.9 1007.9 0.2
15/03:30pm 17.5 13.3 11.1 66 3.5 NW 24 37 13 20 1007.3 1007.3 0.2
15/03:06pm 16.0 10.1 10.3 69 3.0 NW 32 50 17 27 1007.4 1007.4 0.2
15/03:00pm 19.6 12.9 7.4 45 6.3 NW 32 44 17 24 1007.3 1007.3 0.0
15/02:30pm 19.7 14.8 8.4 48 5.9 NW 24 33 13 18 1007.6 1007.6 0.0
15/02:00pm 16.5 12.7 9.0 61 3.9 NNW 19 28 10 15 1007.7 1007.7 0.0
15/01:30pm 16.2 12.5 7.9 58 4.2 WNW 17 20 9 11 1007.8 1007.8 0.0
15/01:00pm 16.2 11.6 8.2 59 4.1 W 22 30 12 16 1008.7 1008.7 0.0
15/12:30pm 15.8 10.2 7.1 56 4.3 W 26 35 14 19 1009.1 1009.1 0.0
15/12:00pm 16.0 10.6 6.2 52 4.8 WNW 24 33 13 18 1009.2 1009.2 0.0
15/11:30am 15.4 10.5 6.7 56 4.3 WNW 22 32 12 17 1009.2 1009.2 0.0
15/11:00am 14.7 9.7 6.5 58 4.0 W 22 35 12 19 1009.1 1009.1 0.0
15/10:30am 16.2 8.8 3.9 44 5.7 NW 32 48 17 26 1008.9 1008.9 0.0
15/10:00am 16.1 8.6 3.2 42 5.9 NNW 32 41 17 22 1008.3 1008.3 0.0
15/09:30am 15.0 9.2 4.4 49 4.9 N 24 30 13 16 1008.2 1008.2 0.0
15/09:00am 14.3 7.7 4.3 51 4.6 N 28 33 15 18 1008.2 1008.2 0.0
15/08:30am 13.2 7.8 4.6 56 4.0 N 22 28 12 15 1007.9 1007.9 0.0
15/08:00am 13.4 7.7 4.8 56 4.0 N 24 35 13 19 1008.1 1008.1 0.0
15/07:30am 13.4 8.7 5.1 57 3.9 NNE 19 24 10 13 1008.1 1008.1 0.0
15/07:00am 12.9 7.5 6.3 64 3.1 NNE 24 32 13 17 1007.9 1007.9 0.0
15/06:30am 12.6 7.8 7.3 70 2.6 NNE 22 30 12 16 1008.2 1008.2 0.0
15/06:00am 11.8 8.0 9.0 83 1.4 NNE 19 24 10 13 1008.7 1008.7 0.0
15/05:30am 11.0 8.4 10.8 99 0.1 NNE 15 20 8 11 1009.2 1009.2 0.0
15/05:00am 10.8 8.2 10.6 99 0.1 NNE 15 19 8 10 1009.6 1009.6 0.0
15/04:30am 10.4 7.7 10.2 99 0.1 NE 15 19 8 10 1009.8 1009.8 0.0
15/04:00am 10.2 7.4 10.1 99 0.1 NE 15 17 8 9 1010.2 1010.2 0.0
15/03:30am 10.2 7.0 10.1 99 0.1 NE 17 19 9 10 1010.7 1010.7 0.0
15/03:00am 11.0 8.0 10.8 99 0.1 ENE 17 19 9 10 1011.4 1011.4 0.0
15/02:30am 11.1 8.6 10.9 99 0.1 NE 15 20 8 11 1012.1 1012.1 0.0
15/02:00am 10.5 7.8 10.5 100 0.0 NE 15 17 8 9 1012.7 1012.7 0.0
15/01:30am 10.4 8.5 10.4 100 0.0 NE 11 13 6 7 1013.0 1013.0 0.0
15/01:00am 10.4 8.5 10.4 100 0.0 ENE 11 13 6 7 1013.4 1013.4 0.0
15/12:50am 10.8 9.4 10.8 100 0.0 ENE 9 11 5 6 1013.5 1013.5 0.0
15/12:30am 11.2 9.5 11.2 100 0.0 ENE 11 13 6 7 1013.7 1013.7 0.0
15/12:00am 11.8 9.9 11.8 100 0.0 E 13 17 7 9 1014.1 1014.1 0.0
 
Date/Time
CST
Temp
°C
App
Temp
°C
Dew
Point
°C
Rel
Hum
%
Delta-T
°C
Wind Press
QNH
hPa
Press
MSL
hPa
Rain since
9am
mm
Dir  Spd
km/h
Gust
km/h
Spd
kts
Gust
kts
14/11:30pm 11.6 9.3 11.6 100 0.0 ENE 15 17 8 9 1014.1 1014.1 0.0
14/11:00pm 11.7 10.5 11.7 100 0.0 S 9 11 5 6 1014.5 1014.5 0.0
14/10:30pm 11.4 9.4 11.4 100 0.0 SE 13 15 7 8 1014.1 1014.1 0.0
14/10:00pm 11.6 9.6 11.6 100 0.0 ESE 13 15 7 8 1014.3 1014.3 0.0
14/09:30pm 10.7 7.7 10.7 100 0.0 ESE 17 19 9 10 1014.5 1014.5 0.0
14/09:00pm 10.2 7.8 10.1 99 0.1 ESE 13 17 7 9 1014.8 1014.8 0.0
14/08:30pm 10.6 7.5 10.4 99 0.1 E 17 19 9 10 1014.8 1014.8 0.0
14/08:00pm 11.4 8.9 11.2 99 0.1 ESE 15 17 8 9 1015.0 1015.0 0.0
14/07:30pm 11.8 9.6 10.7 93 0.6 SE 13 15 7 8 1015.0 1015.0 0.0
14/07:00pm 13.6 12.1 12.0 90 0.9 SE 11 13 6 7 1014.9 1014.9 0.0
14/06:30pm 14.2 12.8 12.2 88 1.1 SE 11 15 6 8 1014.8 1014.8 0.0
14/06:00pm 14.9 13.1 12.0 83 1.6 SE 13 17 7 9 1014.7 1014.7 0.0
14/05:30pm 15.8 13.5 11.6 76 2.3 SSE 15 19 8 10 1014.7 1014.7 0.0
14/05:00pm 16.7 14.1 10.8 68 3.2 SSE 15 19 8 10 1014.8 1014.8 0.0
14/04:30pm 17.4 14.2 9.8 61 4.0 SSE 17 22 9 12 1015.0 1015.0 0.0
14/04:00pm 18.6 14.9 8.0 50 5.4 S 17 22 9 12 1015.1 1015.1 0.0
14/03:30pm 18.8 15.0 7.6 48 5.7 S 17 22 9 12 1015.2 1015.2 0.0
14/03:00pm 19.6 16.1 8.9 50 5.6 S 17 24 9 13 1015.4 1015.4 0.0
14/02:30pm 20.0 18.2 9.3 50 5.7 SSW 9 20 5 11 1015.7 1015.7 0.0
14/02:00pm 18.8 16.5 7.3 47 5.8 W 9 17 5 9 1016.2 1016.3 0.0
14/01:30pm 18.9 16.0 8.0 49 5.6 SSW 13 19 7 10 1016.6 1016.7 0.0

Other Formats:

Comma delimited format used in spreadsheet applications
http://www.bom.gov.au/fwo/IDS60801/IDS60801.94651.axf

JavaScript Object Notation format (JSON) in row-major order
http://www.bom.gov.au/fwo/IDS60801/IDS60801.94651.json